createdAt,value
2022-12-31T00:01:25.441Z,0.60
2022-12-31T00:02:57.434Z,0.70
2022-12-31T00:04:29.204Z,0.40
2022-12-31T00:06:01.011Z,0.50
2022-12-31T00:09:08.734Z,0.50
2022-12-31T00:10:41.785Z,0.60
2022-12-31T00:12:13.837Z,0.40
2022-12-31T00:13:46.784Z,0.50
2022-12-31T00:15:18.809Z,0.80
2022-12-31T00:16:50.569Z,0.40
2022-12-31T00:18:22.336Z,0.40
2022-12-31T00:19:54.032Z,0.30
2022-12-31T00:21:30.095Z,0.30
2022-12-31T00:23:01.883Z,0.30
2022-12-31T00:24:35.812Z,0.40
2022-12-31T00:26:17.902Z,0.40
2022-12-31T00:27:49.842Z,0.30
2022-12-31T00:29:21.758Z,0.30
2022-12-31T00:30:53.692Z,0.30
2022-12-31T00:32:26.257Z,0.30
2022-12-31T00:33:59.564Z,0.30
2022-12-31T00:35:31.310Z,0.30
2022-12-31T00:37:03.012Z,0.20
2022-12-31T00:38:36.298Z,0.30
2022-12-31T00:40:09.440Z,0.30
2022-12-31T00:41:43.345Z,0.30
2022-12-31T00:43:15.068Z,0.30
2022-12-31T00:44:46.823Z,0.20
2022-12-31T00:46:19.877Z,0.20
2022-12-31T00:47:51.699Z,0.20
2022-12-31T00:49:23.414Z,0.20
2022-12-31T00:50:56.446Z,0.20
2022-12-31T00:52:28.192Z,0.20
2022-12-31T00:54:00.253Z,0.10
2022-12-31T00:55:31.964Z,0.30
2022-12-31T00:57:03.953Z,0.30
2022-12-31T00:58:35.854Z,0.20
2022-12-31T01:00:09.107Z,0.20
2022-12-31T01:01:42.562Z,0.20
2022-12-31T01:03:14.527Z,0.20
2022-12-31T01:04:46.298Z,0.20
2022-12-31T01:06:19.432Z,0.30
2022-12-31T01:07:51.129Z,0.20
2022-12-31T01:09:22.888Z,0.20
2022-12-31T01:11:13.373Z,0.20
2022-12-31T01:12:45.093Z,0.30
2022-12-31T01:14:20.367Z,0.20
2022-12-31T01:15:52.215Z,0.30
2022-12-31T01:17:24.035Z,0.30
2022-12-31T01:19:00.244Z,0.40
2022-12-31T01:20:40.669Z,0.40
2022-12-31T01:22:12.425Z,0.30
2022-12-31T01:23:44.811Z,0.40
2022-12-31T01:25:16.703Z,0.40
2022-12-31T01:26:48.760Z,0.40
2022-12-31T01:28:20.535Z,0.30
2022-12-31T01:29:52.729Z,0.40
2022-12-31T01:31:25.979Z,0.30
2022-12-31T01:32:58.481Z,0.30
2022-12-31T01:34:30.206Z,0.40
2022-12-31T01:36:10.766Z,0.40
2022-12-31T01:37:42.507Z,0.20
2022-12-31T01:39:14.351Z,0.20
2022-12-31T01:40:46.099Z,0.30
2022-12-31T01:42:17.797Z,0.40
2022-12-31T01:43:54.361Z,0.30
2022-12-31T01:45:26.625Z,0.30
2022-12-31T01:47:04.184Z,0.20
2022-12-31T01:48:36.763Z,0.30
2022-12-31T01:50:33.850Z,0.30
2022-12-31T01:52:20.936Z,0.20
2022-12-31T01:53:52.876Z,0.30
2022-12-31T01:55:32.116Z,0.20
2022-12-31T01:57:05.308Z,0.20
2022-12-31T01:58:44.342Z,0.20
2022-12-31T02:00:17.414Z,0.20
2022-12-31T02:01:55.098Z,0.10
2022-12-31T02:03:28.680Z,0.20
2022-12-31T02:05:05.413Z,0.20
2022-12-31T02:06:54.983Z,0.20
2022-12-31T02:08:27.059Z,0.30
2022-12-31T02:09:59.982Z,0.20
2022-12-31T02:11:36.651Z,0.20
2022-12-31T02:13:08.776Z,0.20
2022-12-31T02:14:47.907Z,0.10
2022-12-31T02:16:36.827Z,0.10
2022-12-31T02:18:27.129Z,0.20
2022-12-31T02:20:19.457Z,0.20
2022-12-31T02:22:38.648Z,0.20
2022-12-31T02:24:41.400Z,0.20
2022-12-31T02:26:39.634Z,0.20
2022-12-31T02:28:34.387Z,0.20
2022-12-31T02:30:25.492Z,0.20
2022-12-31T02:32:12.667Z,0.20
2022-12-31T02:34:04.717Z,0.20
2022-12-31T02:35:45.424Z,0.20
2022-12-31T02:37:21.670Z,0.20
2022-12-31T02:38:55.404Z,0.10
2022-12-31T02:40:27.439Z,0.10
2022-12-31T02:42:00.129Z,0.10
2022-12-31T02:43:31.890Z,0.10
2022-12-31T02:45:03.927Z,0.20
2022-12-31T02:46:54.745Z,0.10
2022-12-31T02:48:36.617Z,0.10
2022-12-31T02:50:33.973Z,0.20
2022-12-31T02:52:20.738Z,0.10
2022-12-31T02:54:23.636Z,0.10
2022-12-31T02:56:24.330Z,0.20
2022-12-31T02:58:08.025Z,0.10
2022-12-31T03:00:20.889Z,0.10
2022-12-31T03:02:15.055Z,0.10
2022-12-31T03:03:46.957Z,0.20
2022-12-31T03:05:25.280Z,0.10
2022-12-31T03:06:57.044Z,0.10
2022-12-31T03:08:28.851Z,0.10
2022-12-31T03:10:01.676Z,0.20
2022-12-31T03:11:51.721Z,0.10
2022-12-31T03:13:24.816Z,0.10
2022-12-31T03:14:57.051Z,0.10
2022-12-31T03:16:28.802Z,0.10
2022-12-31T03:20:11.238Z,0.20
2022-12-31T03:22:01.739Z,0.10
2022-12-31T03:24:03.963Z,0.20
2022-12-31T03:25:35.859Z,0.10
2022-12-31T03:27:07.640Z,0.10
2022-12-31T03:28:47.885Z,0.10
2022-12-31T03:30:22.508Z,0.10
2022-12-31T03:31:54.286Z,0.20
2022-12-31T03:33:30.977Z,0.10
2022-12-31T03:35:04.133Z,0.20
2022-12-31T03:36:35.908Z,0.20
2022-12-31T03:38:08.147Z,0.20
2022-12-31T03:39:40.151Z,0.20
2022-12-31T03:41:12.150Z,0.10
2022-12-31T03:42:44.112Z,0.50
2022-12-31T03:44:15.933Z,0.20
2022-12-31T03:45:53.466Z,0.20
2022-12-31T03:47:25.352Z,0.10
2022-12-31T03:48:57.100Z,0.10
2022-12-31T03:50:29.208Z,0.10
2022-12-31T03:52:03.118Z,0.20
2022-12-31T03:53:35.822Z,0.10
2022-12-31T03:55:10.382Z,0.20
2022-12-31T03:56:44.978Z,0.10
2022-12-31T03:58:16.819Z,0.10
2022-12-31T03:59:48.666Z,0.20
2022-12-31T04:01:24.379Z,0.10
2022-12-31T04:02:56.523Z,0.10
2022-12-31T04:04:28.333Z,0.10
2022-12-31T04:06:00.116Z,0.10
2022-12-31T04:07:32.153Z,0.10
2022-12-31T04:09:04.096Z,0.10
2022-12-31T04:10:36.153Z,0.30
2022-12-31T04:12:08.400Z,0.10
2022-12-31T04:13:40.169Z,0.10
2022-12-31T04:15:23.352Z,0.10
2022-12-31T04:16:55.128Z,0.20
2022-12-31T04:18:27.034Z,0.10
2022-12-31T04:19:58.829Z,0.10
2022-12-31T04:21:34.957Z,0.10
2022-12-31T04:23:07.528Z,0.20
2022-12-31T04:24:39.404Z,0.20
2022-12-31T04:26:11.076Z,0.30
2022-12-31T04:27:44.066Z,0.20
2022-12-31T04:29:15.897Z,0.10
2022-12-31T04:30:47.604Z,0.20
2022-12-31T04:32:19.402Z,0.20
2022-12-31T04:33:51.157Z,0.10
2022-12-31T04:35:22.885Z,0.10
2022-12-31T04:36:54.694Z,0.20
2022-12-31T04:38:26.498Z,0.10
2022-12-31T04:40:05.160Z,0.20
2022-12-31T04:41:37.849Z,0.20
2022-12-31T04:43:09.540Z,0.20
2022-12-31T04:44:41.271Z,0.10
2022-12-31T04:46:14.539Z,0.10
2022-12-31T04:47:46.324Z,0.20
2022-12-31T04:49:18.131Z,0.10
2022-12-31T04:50:49.871Z,0.20
2022-12-31T04:52:21.995Z,0.20
2022-12-31T04:53:54.672Z,0.20
2022-12-31T04:55:26.340Z,0.10
2022-12-31T04:56:58.063Z,0.30
2022-12-31T04:58:30.289Z,0.20
2022-12-31T05:00:02.076Z,0.20
2022-12-31T05:01:34.023Z,0.10
2022-12-31T05:03:05.840Z,0.20
2022-12-31T05:04:37.623Z,0.20
2022-12-31T05:06:15.834Z,0.10
2022-12-31T05:07:47.561Z,0.40
2022-12-31T05:09:19.645Z,0.10
2022-12-31T05:10:51.410Z,0.20
2022-12-31T05:12:23.207Z,0.20
2022-12-31T05:13:54.946Z,0.20
2022-12-31T05:15:26.676Z,0.20
2022-12-31T05:16:59.375Z,0.20
2022-12-31T05:18:32.307Z,0.20
2022-12-31T05:20:04.723Z,0.20
2022-12-31T05:21:36.853Z,0.20
2022-12-31T05:23:08.999Z,0.30
2022-12-31T05:24:40.685Z,0.20
2022-12-31T05:26:12.521Z,0.20
2022-12-31T05:27:45.209Z,0.20
2022-12-31T05:29:16.921Z,0.20
2022-12-31T05:30:50.932Z,0.20
2022-12-31T05:32:22.761Z,0.10
2022-12-31T05:33:54.459Z,0.20
2022-12-31T05:35:26.916Z,0.20
2022-12-31T05:36:58.595Z,0.20
2022-12-31T05:38:30.501Z,0.20
2022-12-31T05:40:02.883Z,0.20
2022-12-31T05:41:34.697Z,0.20
2022-12-31T05:43:06.578Z,0.30
2022-12-31T05:44:38.253Z,0.20
2022-12-31T05:46:10.015Z,0.10
2022-12-31T05:47:42.968Z,0.20
2022-12-31T05:49:14.696Z,0.20
2022-12-31T05:50:46.425Z,0.20
2022-12-31T05:52:18.339Z,0.20
2022-12-31T05:55:29.463Z,0.30
2022-12-31T05:57:01.221Z,0.40
2022-12-31T05:58:32.974Z,0.20
2022-12-31T06:00:10.607Z,0.20
2022-12-31T06:01:45.258Z,0.30
2022-12-31T06:03:17.026Z,0.30
2022-12-31T06:04:49.498Z,0.20
2022-12-31T06:06:21.288Z,0.40
2022-12-31T06:07:53.027Z,0.30
2022-12-31T06:09:24.975Z,0.30
2022-12-31T06:10:56.862Z,0.30
2022-12-31T06:12:28.739Z,0.20
2022-12-31T06:14:00.457Z,0.20
2022-12-31T06:15:32.546Z,0.20
2022-12-31T06:17:04.290Z,0.20
2022-12-31T06:18:38.115Z,0.30
2022-12-31T06:20:13.282Z,0.20
2022-12-31T06:21:45.393Z,0.30
2022-12-31T06:23:17.153Z,0.30
2022-12-31T06:24:48.911Z,0.30
2022-12-31T06:26:20.765Z,0.20
2022-12-31T06:27:52.510Z,0.30
2022-12-31T06:29:24.367Z,0.20
2022-12-31T06:31:05.215Z,0.20
2022-12-31T06:32:37.014Z,0.20
2022-12-31T06:34:08.748Z,0.20
2022-12-31T06:35:40.567Z,0.30
2022-12-31T06:37:12.297Z,0.30
2022-12-31T06:38:44.271Z,0.40
2022-12-31T06:40:16.160Z,0.30
2022-12-31T06:41:47.950Z,0.20
2022-12-31T06:43:20.556Z,0.20
2022-12-31T06:44:52.307Z,0.30
2022-12-31T06:46:24.079Z,0.20
2022-12-31T06:47:55.898Z,0.30
2022-12-31T06:49:27.638Z,0.20
2022-12-31T06:51:13.446Z,0.20
2022-12-31T06:52:48.491Z,0.30
2022-12-31T06:54:20.445Z,0.30
2022-12-31T07:05:46.313Z,0.30
2022-12-31T07:07:59.688Z,0.30
2022-12-31T07:10:04.796Z,0.30
2022-12-31T07:12:00.900Z,0.30
2022-12-31T07:13:47.431Z,0.40
2022-12-31T07:15:53.701Z,0.20
2022-12-31T07:18:03.331Z,0.30
2022-12-31T07:19:57.331Z,0.30
2022-12-31T07:21:39.628Z,0.40
2022-12-31T07:23:11.907Z,0.30
2022-12-31T07:24:45.356Z,0.30
2022-12-31T07:26:34.000Z,0.20
2022-12-31T07:28:41.462Z,0.40
2022-12-31T07:30:30.569Z,0.30
2022-12-31T07:32:30.554Z,0.30
2022-12-31T07:34:25.443Z,0.30
2022-12-31T07:36:15.281Z,0.30
2022-12-31T07:38:26.445Z,0.40
2022-12-31T07:40:19.142Z,0.40
2022-12-31T07:42:13.412Z,0.40
2022-12-31T07:44:14.533Z,0.40
2022-12-31T07:46:13.968Z,0.40
2022-12-31T07:47:46.687Z,0.30
2022-12-31T07:49:19.355Z,0.40
2022-12-31T07:50:55.367Z,0.40
2022-12-31T07:52:28.716Z,0.40
2022-12-31T07:54:00.548Z,0.40
2022-12-31T07:55:32.275Z,0.40
2022-12-31T07:57:04.888Z,0.50
2022-12-31T07:59:23.956Z,0.30
2022-12-31T08:00:59.828Z,0.30
2022-12-31T08:03:12.828Z,0.40
2022-12-31T08:05:06.336Z,0.30
2022-12-31T08:07:10.503Z,0.40
2022-12-31T08:09:01.861Z,0.40
2022-12-31T08:11:03.867Z,0.30
2022-12-31T08:12:40.132Z,0.30
2022-12-31T08:14:15.155Z,0.40
2022-12-31T08:15:48.013Z,0.60
2022-12-31T08:17:21.533Z,0.40
2022-12-31T08:18:54.359Z,0.30
2022-12-31T08:20:27.361Z,0.30
2022-12-31T08:22:17.632Z,0.40
2022-12-31T08:24:23.692Z,0.60
2022-12-31T08:26:27.795Z,0.40
2022-12-31T08:28:40.316Z,0.40
2022-12-31T08:30:22.075Z,0.30
2022-12-31T08:32:23.833Z,0.40
2022-12-31T08:34:08.838Z,0.20
2022-12-31T08:36:00.548Z,0.40
2022-12-31T08:37:45.135Z,0.30
2022-12-31T08:39:54.493Z,0.40
2022-12-31T08:41:43.143Z,0.30
2022-12-31T08:43:33.046Z,0.30
2022-12-31T08:45:26.018Z,0.40
2022-12-31T08:47:25.735Z,0.40
2022-12-31T08:48:59.166Z,0.40
2022-12-31T08:50:32.265Z,0.40
2022-12-31T08:52:13.116Z,0.40
2022-12-31T08:53:46.250Z,0.30
2022-12-31T08:55:19.704Z,0.40
2022-12-31T08:57:14.629Z,0.30
2022-12-31T08:59:20.428Z,0.60
2022-12-31T09:00:58.575Z,0.40
2022-12-31T09:03:03.772Z,0.40
2022-12-31T09:05:24.222Z,0.30
2022-12-31T09:07:04.943Z,0.40
2022-12-31T09:08:45.794Z,0.30
2022-12-31T09:10:42.765Z,0.40
2022-12-31T09:12:29.396Z,0.50
2022-12-31T09:14:29.283Z,0.50
2022-12-31T09:16:13.069Z,0.40
2022-12-31T09:17:48.862Z,0.50
2022-12-31T09:19:20.757Z,0.40
2022-12-31T09:20:53.468Z,0.40
2022-12-31T09:22:25.784Z,0.30
2022-12-31T09:23:59.455Z,0.30
2022-12-31T09:25:51.681Z,0.40
2022-12-31T09:27:46.063Z,0.60
2022-12-31T09:29:37.329Z,0.50
2022-12-31T09:31:19.993Z,0.40
2022-12-31T09:33:22.993Z,0.30
2022-12-31T09:35:04.185Z,0.40
2022-12-31T09:36:51.049Z,0.50
2022-12-31T09:38:54.721Z,0.40
2022-12-31T09:40:29.275Z,0.40
2022-12-31T09:42:26.694Z,0.20
2022-12-31T09:44:15.618Z,0.40
2022-12-31T09:46:38.731Z,0.70
2022-12-31T09:48:22.532Z,0.40
2022-12-31T09:50:41.162Z,0.40
2022-12-31T09:53:06.181Z,0.70
2022-12-31T09:54:50.256Z,0.60
2022-12-31T09:56:57.147Z,0.60
2022-12-31T09:59:03.130Z,0.60
2022-12-31T10:01:09.802Z,0.30
2022-12-31T10:03:02.710Z,0.40
2022-12-31T10:05:28.596Z,0.50
2022-12-31T10:07:52.055Z,0.40
2022-12-31T10:09:54.319Z,0.50
2022-12-31T10:11:47.417Z,0.40
2022-12-31T10:13:50.581Z,0.30
2022-12-31T10:16:02.549Z,0.50
2022-12-31T10:18:07.810Z,0.40
2022-12-31T10:20:20.753Z,0.40
2022-12-31T10:22:29.709Z,0.30
2022-12-31T10:24:48.052Z,0.50
2022-12-31T10:26:22.701Z,0.50
2022-12-31T10:28:18.876Z,0.50
2022-12-31T10:30:18.140Z,0.70
2022-12-31T10:32:33.369Z,0.40
2022-12-31T10:34:25.616Z,0.30
2022-12-31T10:36:16.736Z,0.50
2022-12-31T10:38:28.656Z,0.70
2022-12-31T10:40:09.289Z,0.50
2022-12-31T10:42:18.250Z,0.40
2022-12-31T10:44:58.125Z,0.50
2022-12-31T10:46:54.704Z,0.50
2022-12-31T10:49:02.942Z,0.40
2022-12-31T10:51:08.790Z,0.40
2022-12-31T10:53:02.302Z,0.40
2022-12-31T10:54:46.941Z,0.50
2022-12-31T10:57:07.089Z,0.40
2022-12-31T10:59:16.697Z,0.60
2022-12-31T11:10:36.646Z,0.50
2022-12-31T11:12:27.082Z,0.70
2022-12-31T11:14:37.011Z,0.60
2022-12-31T11:16:24.287Z,0.40
2022-12-31T11:18:30.477Z,0.50
2022-12-31T11:21:00.262Z,0.60
2022-12-31T11:22:56.664Z,0.70
2022-12-31T11:24:56.304Z,0.50
2022-12-31T11:26:41.157Z,0.70
2022-12-31T11:28:28.313Z,0.40
2022-12-31T11:30:33.140Z,0.60
2022-12-31T11:32:28.332Z,0.50
2022-12-31T11:34:58.080Z,0.40
2022-12-31T11:36:51.883Z,0.50
2022-12-31T11:38:30.764Z,0.60
2022-12-31T11:40:21.782Z,0.50
2022-12-31T11:42:46.312Z,0.70
2022-12-31T11:44:21.341Z,0.70
2022-12-31T11:46:08.841Z,0.50
2022-12-31T11:48:32.041Z,0.60
2022-12-31T11:50:13.485Z,0.50
2022-12-31T11:52:34.808Z,0.30
2022-12-31T11:54:15.374Z,0.50
2022-12-31T11:56:20.714Z,0.50
2022-12-31T11:57:53.428Z,0.60
2022-12-31T11:59:25.193Z,0.70
2022-12-31T12:01:17.538Z,0.60
2022-12-31T12:02:59.502Z,0.60
2022-12-31T12:04:32.355Z,0.50
2022-12-31T12:06:04.738Z,0.60
2022-12-31T12:07:36.582Z,0.60
2022-12-31T12:09:19.244Z,0.50
2022-12-31T12:10:58.649Z,0.60
2022-12-31T12:12:42.040Z,0.50
2022-12-31T12:14:21.653Z,0.60
2022-12-31T12:15:59.289Z,0.50
2022-12-31T12:17:34.389Z,0.60
2022-12-31T12:19:17.574Z,0.90
2022-12-31T12:20:51.304Z,0.60
2022-12-31T12:22:26.694Z,1.00
2022-12-31T12:24:01.350Z,0.70
2022-12-31T12:25:43.144Z,0.60
2022-12-31T12:27:24.633Z,0.60
2022-12-31T12:29:08.396Z,0.50
2022-12-31T12:30:41.407Z,0.60
2022-12-31T12:32:27.143Z,0.80
2022-12-31T12:33:58.965Z,0.80
2022-12-31T12:35:36.133Z,0.70
2022-12-31T12:37:36.171Z,0.70
2022-12-31T12:39:08.248Z,0.90
2022-12-31T12:40:40.927Z,0.60
2022-12-31T12:42:16.072Z,0.80
2022-12-31T12:43:48.003Z,0.70
2022-12-31T12:45:51.889Z,0.50
2022-12-31T12:47:26.137Z,0.60
2022-12-31T12:48:58.855Z,0.70
2022-12-31T12:50:45.085Z,0.80
2022-12-31T12:53:02.821Z,1.00
2022-12-31T12:55:16.924Z,1.40
2022-12-31T12:57:20.831Z,1.30
2022-12-31T12:59:01.213Z,1.20
2022-12-31T13:01:27.144Z,0.80
2022-12-31T13:03:27.895Z,0.70
2022-12-31T13:05:28.251Z,0.80
2022-12-31T13:07:18.808Z,0.70
2022-12-31T13:09:29.420Z,0.70
2022-12-31T13:11:43.740Z,0.90
2022-12-31T13:13:28.192Z,0.70
2022-12-31T13:15:17.692Z,0.70
2022-12-31T13:17:36.828Z,1.10
2022-12-31T13:19:39.780Z,0.90
2022-12-31T13:21:33.643Z,0.80
2022-12-31T13:23:40.186Z,0.70
2022-12-31T13:25:52.857Z,0.60
2022-12-31T13:27:34.088Z,0.60
2022-12-31T13:29:15.715Z,0.80
2022-12-31T13:31:01.735Z,0.60
2022-12-31T13:32:47.225Z,0.50
2022-12-31T13:36:15.377Z,0.60
2022-12-31T13:37:49.645Z,1.20
2022-12-31T13:39:33.912Z,0.90
2022-12-31T13:41:40.134Z,0.70
2022-12-31T13:43:38.546Z,0.60
2022-12-31T13:45:22.003Z,0.70
2022-12-31T13:47:32.993Z,0.80
2022-12-31T13:49:20.855Z,0.60
2022-12-31T13:51:20.180Z,0.40
2022-12-31T13:53:16.148Z,0.60
2022-12-31T13:55:10.741Z,0.60
2022-12-31T13:56:46.606Z,0.50
2022-12-31T13:58:49.261Z,0.50
2022-12-31T14:00:31.482Z,0.60
2022-12-31T14:02:15.477Z,0.80
2022-12-31T14:04:06.104Z,0.60
2022-12-31T14:05:53.376Z,0.80
2022-12-31T14:07:56.592Z,0.50
2022-12-31T14:09:34.042Z,0.50
2022-12-31T14:11:35.594Z,0.80
2022-12-31T14:13:36.943Z,0.70
2022-12-31T14:15:39.621Z,0.60
2022-12-31T14:17:39.106Z,0.60
2022-12-31T14:19:16.681Z,0.50
2022-12-31T14:21:54.187Z,0.80
2022-12-31T14:23:55.414Z,0.70
2022-12-31T14:26:02.215Z,0.60
2022-12-31T14:27:43.292Z,0.60
2022-12-31T14:29:35.060Z,1.10
2022-12-31T14:31:26.562Z,0.90
2022-12-31T14:33:36.312Z,0.60
2022-12-31T14:35:52.684Z,0.90
2022-12-31T14:38:00.026Z,0.70
2022-12-31T14:39:59.304Z,0.70
2022-12-31T14:41:48.167Z,0.70
2022-12-31T14:44:06.902Z,0.60
2022-12-31T14:45:38.693Z,0.90
2022-12-31T14:47:20.245Z,1.00
2022-12-31T14:49:02.780Z,1.40
2022-12-31T14:50:39.318Z,0.80
2022-12-31T14:52:25.144Z,0.90
2022-12-31T14:53:58.991Z,1.00
2022-12-31T14:55:35.571Z,0.90
2022-12-31T14:58:01.567Z,0.80
2022-12-31T14:59:38.707Z,0.70
2022-12-31T15:01:17.811Z,1.20
2022-12-31T15:02:59.507Z,1.00
2022-12-31T15:05:16.019Z,0.70
2022-12-31T15:07:26.843Z,0.90
2022-12-31T15:09:39.133Z,0.90
2022-12-31T15:11:27.373Z,1.00
2022-12-31T15:13:21.265Z,1.00
2022-12-31T15:15:24.252Z,0.80
2022-12-31T15:17:02.666Z,0.90
2022-12-31T15:19:20.342Z,1.10
2022-12-31T15:21:42.339Z,1.60
2022-12-31T15:23:26.465Z,1.30
2022-12-31T15:25:01.691Z,1.20
2022-12-31T15:26:37.351Z,0.80
2022-12-31T15:28:30.918Z,1.20
2022-12-31T15:30:07.230Z,1.60
2022-12-31T15:31:48.112Z,1.10
2022-12-31T15:33:54.243Z,1.10
2022-12-31T15:35:33.847Z,1.50
2022-12-31T15:37:35.020Z,1.30
2022-12-31T15:39:51.647Z,0.80
2022-12-31T15:41:36.373Z,1.10
2022-12-31T15:43:29.683Z,0.90
2022-12-31T15:45:08.936Z,1.20
2022-12-31T15:46:43.428Z,1.50
2022-12-31T15:48:26.201Z,1.20
2022-12-31T15:50:05.943Z,0.90
2022-12-31T15:52:07.061Z,0.90
2022-12-31T15:53:44.520Z,1.10
2022-12-31T15:55:44.075Z,1.10
2022-12-31T15:57:39.036Z,1.80
2022-12-31T15:59:17.301Z,1.20
2022-12-31T16:00:58.240Z,1.20
2022-12-31T16:02:30.283Z,1.50
2022-12-31T16:04:18.624Z,0.90
2022-12-31T16:05:58.672Z,1.40
2022-12-31T16:07:32.246Z,1.50
2022-12-31T16:09:16.281Z,1.10
2022-12-31T16:10:48.628Z,0.90
2022-12-31T16:12:32.537Z,1.10
2022-12-31T16:14:07.064Z,1.20
2022-12-31T16:15:40.554Z,1.40
2022-12-31T16:17:35.399Z,1.20
2022-12-31T16:19:29.863Z,1.10
2022-12-31T16:21:02.341Z,0.90
2022-12-31T16:22:40.072Z,0.80
2022-12-31T16:24:32.242Z,1.60
2022-12-31T16:26:05.322Z,1.00
2022-12-31T16:27:40.802Z,0.90
2022-12-31T16:29:18.578Z,1.20
2022-12-31T16:31:08.546Z,1.20
2022-12-31T16:32:42.593Z,1.00
2022-12-31T16:34:23.381Z,1.30
2022-12-31T16:35:58.934Z,1.00
2022-12-31T16:37:31.011Z,1.00
2022-12-31T16:39:26.904Z,1.30
2022-12-31T16:41:01.255Z,0.90
2022-12-31T16:42:34.690Z,1.70
2022-12-31T16:44:30.448Z,1.30
2022-12-31T16:46:33.286Z,1.60
2022-12-31T16:48:17.406Z,1.10
2022-12-31T16:50:06.875Z,1.00
2022-12-31T16:51:40.228Z,0.80
2022-12-31T16:53:19.801Z,1.10
2022-12-31T16:54:53.602Z,1.30
2022-12-31T16:56:36.420Z,1.40
2022-12-31T16:58:24.299Z,2.00
2022-12-31T17:00:03.535Z,1.30
2022-12-31T17:01:38.683Z,1.50
2022-12-31T17:03:27.638Z,1.60
2022-12-31T17:05:01.391Z,1.40
2022-12-31T17:06:33.783Z,1.10
2022-12-31T17:08:29.263Z,1.20
2022-12-31T17:10:06.811Z,1.30
2022-12-31T17:12:18.432Z,1.90
2022-12-31T17:14:15.761Z,1.90
2022-12-31T17:15:47.919Z,1.40
2022-12-31T17:17:26.838Z,1.00
2022-12-31T17:18:59.121Z,1.70
2022-12-31T17:20:34.260Z,1.70
2022-12-31T17:22:36.392Z,1.30
2022-12-31T17:24:11.979Z,1.20
2022-12-31T17:25:43.791Z,1.50
2022-12-31T17:27:16.074Z,1.40
2022-12-31T17:28:52.566Z,1.00
2022-12-31T17:30:31.399Z,1.20
2022-12-31T17:32:25.821Z,1.20
2022-12-31T17:34:22.958Z,1.00
2022-12-31T17:36:21.368Z,1.20
2022-12-31T17:37:53.093Z,1.60
2022-12-31T17:39:26.657Z,1.70
2022-12-31T17:41:07.897Z,1.20
2022-12-31T17:42:40.373Z,1.00
2022-12-31T17:44:28.968Z,1.00
2022-12-31T17:46:02.877Z,1.10
2022-12-31T17:47:46.173Z,0.90
2022-12-31T17:49:27.115Z,1.40
2022-12-31T17:51:01.407Z,1.00
2022-12-31T17:52:33.146Z,1.10
2022-12-31T17:54:16.446Z,1.80
2022-12-31T17:56:00.399Z,1.20
2022-12-31T17:57:32.445Z,1.40
2022-12-31T17:59:06.545Z,1.80
2022-12-31T18:00:38.347Z,1.30
2022-12-31T18:02:13.132Z,1.10
2022-12-31T18:03:45.899Z,1.30
2022-12-31T18:05:22.417Z,1.40
2022-12-31T18:06:54.120Z,1.50
2022-12-31T18:08:26.097Z,1.90
2022-12-31T18:09:57.900Z,1.40
2022-12-31T18:11:30.026Z,1.80
2022-12-31T18:13:14.189Z,1.80
2022-12-31T18:14:46.119Z,1.90
2022-12-31T18:16:17.927Z,2.10
2022-12-31T18:17:50.256Z,1.70
2022-12-31T18:19:54.351Z,1.20
2022-12-31T18:21:34.709Z,2.40
2022-12-31T18:23:09.015Z,1.90
2022-12-31T18:24:41.150Z,1.50
2022-12-31T18:26:21.937Z,3.20
2022-12-31T18:27:53.623Z,1.60
2022-12-31T18:29:25.347Z,1.60
2022-12-31T18:30:57.851Z,3.00
2022-12-31T18:32:34.350Z,1.80
2022-12-31T18:34:06.079Z,2.40
2022-12-31T18:36:07.655Z,3.10
2022-12-31T18:37:34.498Z,2.50
2022-12-31T18:39:06.305Z,2.90
2022-12-31T18:40:42.835Z,2.20
2022-12-31T18:42:17.892Z,17.60
2022-12-31T18:43:50.995Z,19.00
2022-12-31T18:45:22.877Z,12.90
2022-12-31T18:46:54.666Z,8.50
2022-12-31T18:48:26.776Z,11.20
2022-12-31T18:49:58.543Z,7.00
2022-12-31T18:51:32.416Z,10.30
2022-12-31T18:53:04.385Z,9.00
2022-12-31T18:54:36.110Z,5.50
2022-12-31T18:56:14.786Z,3.40
2022-12-31T18:57:46.576Z,2.40
2022-12-31T18:59:18.313Z,2.20
2022-12-31T19:00:52.133Z,1.40
2022-12-31T19:02:23.904Z,1.00
2022-12-31T19:04:02.702Z,1.40
2022-12-31T19:05:37.385Z,1.40
2022-12-31T19:07:09.169Z,1.00
2022-12-31T19:08:40.940Z,1.40
2022-12-31T19:10:16.404Z,1.40
2022-12-31T19:11:48.945Z,1.30
2022-12-31T19:13:21.196Z,1.30
2022-12-31T19:14:53.415Z,3.00
2022-12-31T19:16:26.300Z,2.10
2022-12-31T19:17:58.177Z,1.30
2022-12-31T19:19:29.945Z,1.50
2022-12-31T19:21:02.407Z,1.50
2022-12-31T19:22:34.113Z,1.60
2022-12-31T19:24:26.416Z,1.20
2022-12-31T19:25:58.202Z,1.30
2022-12-31T19:27:29.985Z,3.90
2022-12-31T19:29:01.712Z,2.10
2022-12-31T19:30:34.679Z,1.70
2022-12-31T19:32:06.408Z,1.60
2022-12-31T19:33:39.065Z,1.50
2022-12-31T19:35:17.576Z,1.10
2022-12-31T19:36:49.540Z,1.30
2022-12-31T19:38:26.255Z,1.80
2022-12-31T19:39:58.653Z,1.40
2022-12-31T19:41:30.682Z,1.30
2022-12-31T19:43:02.446Z,1.60
2022-12-31T19:44:34.314Z,1.40
2022-12-31T19:46:06.249Z,1.40
2022-12-31T19:47:37.966Z,1.40
2022-12-31T19:49:14.387Z,1.50
2022-12-31T19:50:50.395Z,1.30
2022-12-31T19:52:22.131Z,1.40
2022-12-31T19:53:53.945Z,1.30
2022-12-31T19:55:26.936Z,1.50
2022-12-31T19:56:59.057Z,1.40
2022-12-31T19:58:31.114Z,1.70
2022-12-31T20:00:04.335Z,2.00
2022-12-31T20:01:44.598Z,1.50
2022-12-31T20:03:17.246Z,1.90
2022-12-31T20:04:49.958Z,1.30
2022-12-31T20:06:22.880Z,1.50
2022-12-31T20:07:54.631Z,1.40
2022-12-31T20:09:26.358Z,1.70
2022-12-31T20:10:59.116Z,1.80
2022-12-31T20:12:31.457Z,2.00
2022-12-31T20:14:03.186Z,1.50
2022-12-31T20:15:39.317Z,1.40
2022-12-31T20:17:11.314Z,1.40
2022-12-31T20:18:44.932Z,1.50
2022-12-31T20:20:17.790Z,1.50
2022-12-31T20:21:49.693Z,1.50
2022-12-31T20:23:21.436Z,1.50
2022-12-31T20:24:56.304Z,1.80
2022-12-31T20:26:28.086Z,1.70
2022-12-31T20:27:59.867Z,1.60
2022-12-31T20:29:31.590Z,1.60
2022-12-31T20:31:14.047Z,1.70
2022-12-31T20:32:45.821Z,1.70
2022-12-31T20:34:17.515Z,1.70
2022-12-31T20:35:49.282Z,1.80
2022-12-31T20:37:21.095Z,1.70
2022-12-31T20:38:52.964Z,1.70
2022-12-31T20:40:24.703Z,1.50
2022-12-31T20:41:56.447Z,1.90
2022-12-31T20:43:32.296Z,1.80
2022-12-31T20:45:04.662Z,1.40
2022-12-31T20:46:38.280Z,1.80
2022-12-31T20:48:10.158Z,1.60
2022-12-31T20:50:10.191Z,1.60
2022-12-31T20:51:35.171Z,1.50
2022-12-31T20:53:07.030Z,1.40
2022-12-31T20:54:38.755Z,1.80
2022-12-31T20:56:10.544Z,1.50
2022-12-31T20:57:42.672Z,1.10
2022-12-31T20:59:17.203Z,1.60
2022-12-31T21:00:52.213Z,1.70
2022-12-31T21:02:39.182Z,1.40
2022-12-31T21:04:13.402Z,2.40
2022-12-31T21:05:54.779Z,2.00
2022-12-31T21:07:26.826Z,1.70
2022-12-31T21:09:02.459Z,1.80
2022-12-31T21:10:35.922Z,1.40
2022-12-31T21:12:30.901Z,1.90
2022-12-31T21:14:02.953Z,1.70
2022-12-31T21:15:34.743Z,1.30
2022-12-31T21:17:06.535Z,2.30
2022-12-31T21:18:38.366Z,1.60
2022-12-31T21:20:12.290Z,2.50
2022-12-31T21:21:44.047Z,2.10
2022-12-31T21:23:18.488Z,2.10
2022-12-31T21:24:50.231Z,5.80
2022-12-31T21:26:22.029Z,5.60
2022-12-31T21:27:53.734Z,3.70
2022-12-31T21:29:28.847Z,4.60
2022-12-31T21:31:08.087Z,4.10
2022-12-31T21:32:39.980Z,2.20
2022-12-31T21:34:11.849Z,2.20
2022-12-31T21:35:48.685Z,2.60
2022-12-31T21:37:26.596Z,3.10
2022-12-31T21:39:18.535Z,3.30
2022-12-31T21:40:50.760Z,2.90
2022-12-31T21:42:22.748Z,9.00
2022-12-31T21:43:54.867Z,4.40
2022-12-31T21:45:26.759Z,2.40
2022-12-31T21:47:41.295Z,2.20
2022-12-31T21:49:19.517Z,2.00
2022-12-31T21:50:56.048Z,2.10
2022-12-31T21:52:28.463Z,9.00
2022-12-31T21:54:00.190Z,2.50
2022-12-31T21:55:50.910Z,1.80
2022-12-31T21:57:23.593Z,1.90
2022-12-31T21:59:16.910Z,1.70
2022-12-31T22:01:08.906Z,1.60
2022-12-31T22:03:19.370Z,1.90
2022-12-31T22:05:14.990Z,1.90
2022-12-31T22:06:43.250Z,1.80
2022-12-31T22:08:15.161Z,1.90
2022-12-31T22:09:48.399Z,5.90
2022-12-31T22:11:24.047Z,2.10
2022-12-31T22:12:55.875Z,1.60
2022-12-31T22:14:27.583Z,2.10
2022-12-31T22:16:05.203Z,1.90
2022-12-31T22:17:38.234Z,1.80
2022-12-31T22:19:10.014Z,2.10
2022-12-31T22:20:43.484Z,1.90
2022-12-31T22:22:15.223Z,2.00
2022-12-31T22:23:53.363Z,1.90
2022-12-31T22:25:25.145Z,2.10
2022-12-31T22:26:56.950Z,2.00
2022-12-31T22:28:38.776Z,1.80
2022-12-31T22:30:11.468Z,1.80
2022-12-31T22:31:43.354Z,1.90
2022-12-31T22:33:15.235Z,1.80
2022-12-31T22:34:47.507Z,1.40
2022-12-31T22:36:22.288Z,1.90
2022-12-31T22:37:57.875Z,1.70
2022-12-31T22:39:43.548Z,1.50
2022-12-31T22:41:20.568Z,1.50
2022-12-31T22:42:52.871Z,1.80
2022-12-31T22:44:24.676Z,1.80
2022-12-31T22:45:56.496Z,1.70
2022-12-31T22:47:28.250Z,1.70
2022-12-31T22:49:02.441Z,1.90
2022-12-31T22:50:35.951Z,1.70
2022-12-31T22:52:08.976Z,1.70
2022-12-31T22:53:43.255Z,1.50
2022-12-31T22:55:15.705Z,3.40
2022-12-31T22:56:47.590Z,2.00
2022-12-31T22:58:20.979Z,1.90
2022-12-31T22:59:52.866Z,1.90
2022-12-31T23:01:25.294Z,1.90